Arrowsic, Maine
Current Conditions -  °F | °C
As of 2:17 PM on Tuesday 21 Oct 2014 (Local Time) from KIWI Reporting Station
Light Rain Light Rain  
Wind Chill: 54°   Ceiling: 1000
Heat Index: 54°   Visibility: 8mi
Dew Point: 52°   Wind: 0mph
Humidity: 93%   Direction: NA
Pressure: 30.02"   Gusts: NA
Location:  43.8797°N, 69.8408°W
Report Text: KIWI 211817Z AUTO 00000KT 8SM -RA BKN010 OVC016 12/11 A3002 RMK AO2 RAB1755 CIG 007V013 P0002 T01220111
Loading
Personal Weather Stations






























Interactive Weather Map
Tropical Storm Tracking
New forecast layout! Learn more

10-Day Weather Forecast

Advertisements
Track Severe Weather on mobile